9°C Temp
7°C Dewpoint
87% Humidity
Temperature
0 KM/H
MPH
KTS
Calm
Due North

Wind Speed
Partly Cloudy
Conditions
Pressure 1017.92 (hPa) - 30.06 (in)
Visibility 6.2 (mi) - 10.0 (km)

Current Conditions
LEJR
Location 25(km)
Metar :LEJR 290600Z 00000KT 9999 FEW045 09/07 Q1018
Sun 29th March 08:00 am

Airport
  Metar Aviation API Data Provided by https://www.checkwx.com/ PHP scripts by weather34.com ©2020